Time;durP1;ratioP1;P1;durP2;ratioP2;P2;SDS_P1;SDS_P2;PMS_P1;PMS_P2;Temp;Humidity;BMP_temperature;BMP_pressure;BME280_temperature;BME280_humidity;BME280_pressure;Samples;Min_cycle;Max_cycle;Signal;HPM_P1;HPM_P2
2023/06/28 00:00:28;;;;;;;5.05;1.75;;;13.80;99.90;;;;;;5055064;28;20102;-73
2023/06/28 00:02:55;;;;;;;3.50;1.65;;;13.80;99.90;;;;;;5037427;28;20029;-74
2023/06/28 00:05:21;;;;;;;2.92;1.60;;;13.80;99.90;;;;;;5055220;28;20069;-73
2023/06/28 00:07:47;;;;;;;4.45;1.80;;;13.80;99.90;;;;;;5055155;28;20349;-74
2023/06/28 00:10:12;;;;;;;3.58;1.73;;;13.80;99.90;;;;;;5037285;28;20029;-73
2023/06/28 00:12:38;;;;;;;3.28;1.67;;;13.80;99.90;;;;;;5054753;28;20029;-74
2023/06/28 00:15:04;;;;;;;5.22;1.95;;;13.80;99.90;;;;;;5020860;28;20033;-73
2023/06/28 00:17:30;;;;;;;3.20;2.00;;;13.80;99.90;;;;;;5055177;28;20396;-73
2023/06/28 00:19:57;;;;;;;2.97;2.20;;;13.80;99.90;;;;;;5054857;28;20021;-73
2023/06/28 00:22:29;;;;;;;2.75;1.40;;;13.80;99.90;;;;;;5055214;28;20036;-73
2023/06/28 00:25:01;;;;;;;3.10;1.50;;;13.70;99.90;;;;;;5036960;28;20031;-73
2023/06/28 00:27:27;;;;;;;2.20;1.40;;;13.70;99.90;;;;;;5037211;28;20377;-73
2023/06/28 00:29:54;;;;;;;4.10;1.40;;;13.70;99.90;;;;;;5054465;28;20025;-73
2023/06/28 00:32:20;;;;;;;5.00;1.67;;;13.70;99.90;;;;;;5054678;28;20029;-73
2023/06/28 00:34:46;;;;;;;5.32;2.00;;;13.70;99.90;;;;;;5036744;28;20047;-73
2023/06/28 00:37:11;;;;;;;5.13;1.58;;;13.80;99.90;;;;;;5037040;28;20028;-73
2023/06/28 00:39:37;;;;;;;8.07;1.75;;;13.80;99.90;;;;;;5037121;28;20033;-73
2023/06/28 00:42:03;;;;;;;3.55;1.55;;;13.80;99.90;;;;;;5036781;28;20024;-73
2023/06/28 00:44:29;;;;;;;3.05;1.83;;;13.80;99.90;;;;;;5054028;28;20025;-73
2023/06/28 00:46:55;;;;;;;4.13;1.85;;;13.80;99.90;;;;;;5036589;28;20036;-73
2023/06/28 00:49:23;;;;;;;13.95;1.90;;;13.80;99.90;;;;;;5054065;28;20048;-73
2023/06/28 00:51:50;;;;;;;3.90;1.70;;;13.80;99.90;;;;;;5036475;28;20029;-73
2023/06/28 00:54:16;;;;;;;4.47;2.17;;;13.80;99.90;;;;;;5053893;28;20032;-73
2023/06/28 00:56:43;;;;;;;3.97;1.90;;;13.80;99.90;;;;;;5036610;28;20033;-73
2023/06/28 00:59:09;;;;;;;9.70;1.70;;;13.80;99.90;;;;;;5054096;28;20075;-74
2023/06/28 01:01:37;;;;;;;3.13;1.80;;;13.80;99.90;;;;;;5054148;28;20068;-74
2023/06/28 01:04:05;;;;;;;6.95;2.50;;;13.80;99.90;;;;;;5053795;28;20074;-74
2023/06/28 01:06:36;;;;;;;6.25;2.03;;;13.80;99.90;;;;;;5020648;28;20540;-74
2023/06/28 01:09:07;;;;;;;4.40;1.77;;;13.80;99.90;;;;;;5053779;28;20037;-74
2023/06/28 01:11:34;;;;;;;2.85;1.40;;;13.80;99.90;;;;;;5036768;28;20025;-74
2023/06/28 01:14:01;;;;;;;4.65;2.08;;;13.80;99.90;;;;;;5053700;28;20052;-74
2023/06/28 01:16:27;;;;;;;5.75;2.40;;;13.80;99.90;;;;;;5036028;28;20475;-74
2023/06/28 01:18:53;;;;;;;4.25;1.55;;;13.80;99.90;;;;;;5053812;28;20029;-74
2023/06/28 01:21:22;;;;;;;3.35;1.60;;;13.80;99.90;;;;;;5053880;28;20104;-74
2023/06/28 01:23:48;;;;;;;3.53;1.58;;;13.80;99.90;;;;;;5053801;28;20021;-74
2023/06/28 01:26:15;;;;;;;4.00;1.50;;;13.70;99.90;;;;;;5036340;28;20404;-74
2023/06/28 01:28:42;;;;;;;3.08;1.60;;;13.80;99.90;;;;;;5053732;28;20429;-74
2023/06/28 01:31:08;;;;;;;5.32;1.60;;;13.80;99.90;;;;;;5054243;28;20049;-74
2023/06/28 01:33:34;;;;;;;2.50;1.58;;;13.70;99.90;;;;;;5036345;28;20021;-74
2023/06/28 01:36:00;;;;;;;3.80;1.73;;;13.70;99.90;;;;;;5035747;28;20033;-74
2023/06/28 01:38:28;;;;;;;3.67;1.55;;;13.80;99.90;;;;;;5053529;28;20107;-74
2023/06/28 01:40:55;;;;;;;1.63;1.47;;;13.80;99.90;;;;;;5035714;28;20465;-74
2023/06/28 01:43:22;;;;;;;3.58;1.58;;;13.80;99.90;;;;;;5035673;28;20035;-74
2023/06/28 01:45:49;;;;;;;4.80;1.60;;;13.80;99.90;;;;;;5035702;28;20025;-74
2023/06/28 01:48:17;;;;;;;5.82;1.65;;;13.80;99.90;;;;;;5053467;28;20029;-74
2023/06/28 01:50:43;;;;;;;4.72;1.50;;;13.70;99.90;;;;;;5058336;28;20079;-74
2023/06/28 01:53:09;;;;;;;4.25;1.58;;;13.80;99.90;;;;;;5073327;28;20031;-74
2023/06/28 01:55:35;;;;;;;3.10;1.63;;;13.80;99.90;;;;;;5072718;28;20029;-74
2023/06/28 01:58:00;;;;;;;4.05;1.67;;;13.80;99.90;;;;;;5075072;28;20025;-74
2023/06/28 02:00:26;;;;;;;4.15;1.55;;;13.80;99.90;;;;;;5076477;28;20487;-74
2023/06/28 02:02:53;;;;;;;6.45;1.60;;;13.80;99.90;;;;;;5076030;28;20028;-74
2023/06/28 02:05:19;;;;;;;3.42;1.08;;;13.80;99.90;;;;;;5076177;28;20535;-74
2023/06/28 02:07:45;;;;;;;1.65;1.45;;;13.80;99.90;;;;;;5076223;28;20024;-74
2023/06/28 02:10:11;;;;;;;1.65;1.15;;;13.80;99.90;;;;;;5077452;28;20388;-74
2023/06/28 02:12:36;;;;;;;2.80;1.30;;;13.80;99.90;;;;;;5076093;28;20139;-74
2023/06/28 02:15:04;;;;;;;4.80;1.70;;;13.80;99.90;;;;;;5077646;28;20029;-74
2023/06/28 02:17:31;;;;;;;4.65;1.35;;;13.80;99.90;;;;;;5077588;28;20033;-74
2023/06/28 02:19:58;;;;;;;5.55;1.58;;;13.70;99.90;;;;;;5077185;28;20107;-74
2023/06/28 02:22:25;;;;;;;4.07;1.35;;;13.80;99.90;;;;;;5077203;28;20054;-74
2023/06/28 02:24:51;;;;;;;2.70;1.55;;;13.80;99.90;;;;;;5075819;28;20112;-74
2023/06/28 02:27:16;;;;;;;4.72;1.50;;;13.90;99.90;;;;;;5075770;28;20111;-74
2023/06/28 02:29:42;;;;;;;2.78;1.60;;;13.90;99.90;;;;;;5075806;28;20028;-74
2023/06/28 02:32:08;;;;;;;2.97;1.83;;;13.90;99.90;;;;;;5077025;28;20067;-74
2023/06/28 02:34:33;;;;;;;2.05;1.75;;;13.90;99.90;;;;;;5075732;28;20519;-74
2023/06/28 02:36:59;;;;;;;4.35;1.73;;;13.90;99.90;;;;;;5075912;28;20036;-74
2023/06/28 02:39:25;;;;;;;1.20;1.08;;;13.80;99.90;;;;;;5076766;28;20037;-74
2023/06/28 02:41:51;;;;;;;2.75;1.45;;;13.70;99.90;;;;;;5076882;28;20029;-74
2023/06/28 02:44:16;;;;;;;3.65;1.30;;;13.70;99.90;;;;;;5076424;28;20452;-74
2023/06/28 02:46:42;;;;;;;2.63;1.35;;;13.70;99.90;;;;;;5077205;28;20029;-74
2023/06/28 02:49:08;;;;;;;3.42;1.45;;;13.70;99.90;;;;;;5075455;28;20045;-74
2023/06/28 02:51:33;;;;;;;3.50;1.58;;;13.70;99.90;;;;;;5074247;28;20060;-74
2023/06/28 02:53:59;;;;;;;3.95;1.80;;;13.60;99.90;;;;;;5074404;28;20062;-74
2023/06/28 02:56:25;;;;;;;3.63;1.90;;;13.60;99.90;;;;;;5074123;28;20036;-74
2023/06/28 02:58:51;;;;;;;1.83;1.45;;;13.50;99.90;;;;;;5075470;28;20028;-74
2023/06/28 03:01:17;;;;;;;5.90;2.30;;;13.50;99.90;;;;;;5074020;28;20124;-74
2023/06/28 03:03:43;;;;;;;3.75;1.90;;;13.50;99.90;;;;;;5075296;28;20073;-74
2023/06/28 03:06:09;;;;;;;2.47;1.60;;;13.50;99.90;;;;;;5075733;28;20024;-74
2023/06/28 03:08:34;;;;;;;3.95;1.80;;;13.50;99.90;;;;;;5073582;28;20055;-74
2023/06/28 03:11:00;;;;;;;4.38;2.28;;;13.50;99.90;;;;;;5075095;28;20468;-74
2023/06/28 03:13:26;;;;;;;2.20;1.70;;;13.50;99.90;;;;;;5075382;28;20107;-74
2023/06/28 03:15:52;;;;;;;4.20;1.52;;;13.50;99.90;;;;;;5075056;28;20449;-74
2023/06/28 03:18:17;;;;;;;3.55;1.77;;;13.50;99.90;;;;;;5075028;28;20024;-74
2023/06/28 03:20:43;;;;;;;1.60;1.50;;;13.50;99.90;;;;;;5073794;28;20036;-74
2023/06/28 03:23:09;;;;;;;6.78;1.65;;;13.50;99.90;;;;;;5075192;28;20056;-74
2023/06/28 03:25:34;;;;;;;2.17;1.42;;;13.50;99.90;;;;;;5073627;28;20029;-74
2023/06/28 03:28:00;;;;;;;2.95;1.52;;;13.50;99.90;;;;;;5074913;28;20036;-74
2023/06/28 03:30:26;;;;;;;3.80;1.55;;;13.50;99.90;;;;;;5073533;28;20028;-74
2023/06/28 03:32:52;;;;;;;3.65;1.92;;;13.40;99.90;;;;;;5073635;28;20025;-74
2023/06/28 03:35:17;;;;;;;3.60;1.60;;;13.50;99.90;;;;;;5073594;28;20471;-74
2023/06/28 03:37:50;;;;;;;3.00;1.30;;;13.50;99.90;;;;;;5073568;28;20028;-74
2023/06/28 03:40:16;;;;;;;2.53;1.58;;;13.50;99.90;;;;;;5073321;28;20119;-74
2023/06/28 03:42:42;;;;;;;3.75;1.88;;;13.50;99.90;;;;;;5075343;28;20113;-74
2023/06/28 03:45:08;;;;;;;3.90;2.10;;;13.50;99.90;;;;;;5073586;28;20162;-74
2023/06/28 03:47:33;;;;;;;3.78;1.90;;;13.50;99.90;;;;;;5073585;28;20028;-74
2023/06/28 03:49:59;;;;;;;3.90;1.95;;;13.40;99.90;;;;;;5034053;28;1128959;-74
2023/06/28 03:52:25;;;;;;;2.33;1.67;;;13.40;99.90;;;;;;5074427;28;20032;-74
2023/06/28 03:54:50;;;;;;;1.98;1.88;;;13.40;99.90;;;;;;5074961;28;20028;-74
2023/06/28 03:57:16;;;;;;;3.45;1.90;;;13.30;99.90;;;;;;5074547;28;20490;-75
2023/06/28 03:59:42;;;;;;;4.20;2.00;;;13.30;99.90;;;;;;5075846;28;20472;-74
2023/06/28 04:02:07;;;;;;;4.13;2.00;;;13.20;99.90;;;;;;5075166;28;20029;-74
2023/06/28 04:04:33;;;;;;;4.22;2.17;;;13.10;99.90;;;;;;5074417;28;20035;-74
2023/06/28 04:07:02;;;;;;;2.67;2.10;;;13.10;99.90;;;;;;5075874;28;20027;-74
2023/06/28 04:09:28;;;;;;;4.88;2.92;;;13.10;99.90;;;;;;5074432;28;20368;-74
2023/06/28 04:11:54;;;;;;;3.45;2.40;;;13.10;99.90;;;;;;5074034;28;20474;-74
2023/06/28 04:14:20;;;;;;;4.43;2.60;;;13.00;99.90;;;;;;5075106;28;20100;-64
2023/06/28 04:16:45;;;;;;;4.68;2.45;;;13.10;99.90;;;;;;5074111;28;20067;-69
2023/06/28 04:19:11;;;;;;;3.40;2.83;;;13.10;99.90;;;;;;5074417;28;20415;-75
2023/06/28 04:21:36;;;;;;;4.30;2.80;;;13.10;99.90;;;;;;5074834;28;20089;-75
2023/06/28 04:24:02;;;;;;;5.75;2.70;;;13.10;99.90;;;;;;5074680;28;20032;-72
2023/06/28 04:26:28;;;;;;;4.05;2.50;;;13.10;99.90;;;;;;5075009;28;20078;-73
2023/06/28 04:28:54;;;;;;;5.47;3.08;;;13.00;99.90;;;;;;5074539;28;20074;-73
2023/06/28 04:31:19;;;;;;;7.32;3.45;;;13.00;99.90;;;;;;5073776;28;20028;-74
2023/06/28 04:33:46;;;;;;;6.65;3.15;;;13.00;99.90;;;;;;5074644;28;20035;-73
2023/06/28 04:36:12;;;;;;;6.22;2.83;;;13.00;99.90;;;;;;5074709;28;20021;-73
2023/06/28 04:38:39;;;;;;;5.43;2.63;;;13.00;99.90;;;;;;5074277;28;20366;-73
2023/06/28 04:41:05;;;;;;;6.78;3.85;;;13.00;99.90;;;;;;5073919;28;20086;-74
2023/06/28 04:43:38;;;;;;;3.90;2.92;;;13.00;99.90;;;;;;5073494;28;20123;-74
2023/06/28 04:46:04;;;;;;;4.43;2.70;;;13.00;99.90;;;;;;5073843;28;20035;-74
2023/06/28 04:48:29;;;;;;;4.40;2.20;;;13.00;99.90;;;;;;5074506;28;20111;-74
2023/06/28 04:50:55;;;;;;;4.43;2.55;;;13.00;99.90;;;;;;5060995;28;20124;-74
2023/06/28 04:53:21;;;;;;;2.97;2.40;;;13.00;99.90;;;;;;5037333;28;20385;-74
2023/06/28 04:55:48;;;;;;;3.35;2.30;;;13.10;99.90;;;;;;5054334;28;20100;-73
2023/06/28 04:58:13;;;;;;;7.68;2.88;;;13.10;99.90;;;;;;5036513;28;20120;-74
2023/06/28 05:00:39;;;;;;;4.90;2.35;;;13.20;99.90;;;;;;5054331;28;20080;-75
2023/06/28 05:03:05;;;;;;;3.65;2.17;;;13.30;99.90;;;;;;5036349;28;20053;-74
2023/06/28 05:05:31;;;;;;;3.40;2.45;;;13.40;99.90;;;;;;5054207;28;20449;-74
2023/06/28 05:07:59;;;;;;;2.97;2.17;;;13.50;99.90;;;;;;5053712;28;20029;-74
2023/06/28 05:10:24;;;;;;;2.65;2.05;;;13.60;99.90;;;;;;5036220;28;20029;-74
2023/06/28 05:12:51;;;;;;;5.00;2.40;;;13.60;99.90;;;;;;5053684;28;20052;-74
2023/06/28 05:15:18;;;;;;;3.15;1.90;;;13.60;99.90;;;;;;5036049;28;20032;-74
2023/06/28 05:17:44;;;;;;;2.95;2.30;;;13.60;99.90;;;;;;5053248;28;20230;-76
2023/06/28 05:20:10;;;;;;;2.47;1.60;;;13.60;99.90;;;;;;5036279;28;20393;-76
2023/06/28 05:22:43;;;;;;;4.78;2.10;;;13.70;99.90;;;;;;5035994;28;20032;-79
2023/06/28 05:25:08;;;;;;;2.88;1.67;;;13.70;99.90;;;;;;5053996;28;20112;-75
2023/06/28 05:27:34;;;;;;;3.17;1.73;;;13.70;99.90;;;;;;5036282;28;20112;-74
2023/06/28 05:30:00;;;;;;;4.38;1.75;;;13.80;99.90;;;;;;5053898;28;20468;-74
2023/06/28 05:32:25;;;;;;;1.77;1.30;;;13.80;99.90;;;;;;5053758;28;20021;-74
2023/06/28 05:34:51;;;;;;;2.08;1.27;;;13.90;99.90;;;;;;5036065;28;20025;-74
2023/06/28 05:37:17;;;;;;;4.50;1.63;;;13.90;99.90;;;;;;5035694;28;20025;-74
2023/06/28 05:39:43;;;;;;;3.75;1.60;;;14.00;99.90;;;;;;5053648;28;20457;-74
2023/06/28 05:42:08;;;;;;;1.65;1.27;;;14.00;99.90;;;;;;5053357;28;20025;-74
2023/06/28 05:44:34;;;;;;;1.52;1.30;;;14.10;99.90;;;;;;5053657;28;20025;-73
2023/06/28 05:46:59;;;;;;;2.30;1.27;;;14.10;99.90;;;;;;5053629;28;20082;-75
2023/06/28 05:49:25;;;;;;;2.88;1.30;;;14.20;99.90;;;;;;5053385;28;20522;-74
2023/06/28 05:51:51;;;;;;;1.50;1.40;;;14.20;99.90;;;;;;5053531;28;20400;-74
2023/06/28 05:54:16;;;;;;;1.33;1.13;;;14.20;99.90;;;;;;5053539;28;20457;-75
2023/06/28 05:56:43;;;;;;;2.70;1.15;;;14.20;99.90;;;;;;5035783;28;20029;-75
2023/06/28 05:59:09;;;;;;;0.90;0.90;;;14.30;99.90;;;;;;5035483;28;20032;-75
2023/06/28 06:01:34;;;;;;;1.65;0.82;;;14.30;99.90;;;;;;5053634;28;20029;-75
2023/06/28 06:04:00;;;;;;;1.35;1.00;;;14.40;99.90;;;;;;5035855;28;20021;-75
2023/06/28 06:06:26;;;;;;;0.98;0.88;;;14.40;99.90;;;;;;5053349;28;20048;-75
2023/06/28 06:08:51;;;;;;;5.20;1.80;;;14.50;99.90;;;;;;5053430;28;20056;-75
2023/06/28 06:11:17;;;;;;;1.65;1.08;;;14.60;99.90;;;;;;5053382;28;20021;-75
2023/06/28 06:13:42;;;;;;;1.83;1.20;;;14.80;99.90;;;;;;5053405;28;20073;-75
2023/06/28 06:16:08;;;;;;;2.95;1.10;;;14.80;99.90;;;;;;5053316;28;20032;-75
2023/06/28 06:18:36;;;;;;;1.38;0.88;;;15.00;99.90;;;;;;5035644;28;20059;-75
2023/06/28 06:21:02;;;;;;;1.63;1.00;;;15.10;99.90;;;;;;5035537;28;20055;-75
2023/06/28 06:23:28;;;;;;;2.40;0.80;;;15.30;99.90;;;;;;5035848;28;20074;-75
2023/06/28 06:25:54;;;;;;;1.67;0.80;;;15.80;99.90;;;;;;5053413;28;20036;-75
2023/06/28 06:28:19;;;;;;;3.22;0.80;;;16.10;99.90;;;;;;5053379;28;20025;-76
2023/06/28 06:30:45;;;;;;;1.40;0.85;;;16.40;99.90;;;;;;5053212;28;20487;-76
2023/06/28 06:33:11;;;;;;;1.55;0.85;;;16.60;99.90;;;;;;5053198;28;20021;-76
2023/06/28 06:35:37;;;;;;;1.33;0.75;;;16.70;99.90;;;;;;5053201;28;20049;-76
2023/06/28 06:38:02;;;;;;;1.95;0.70;;;17.00;99.90;;;;;;5053145;28;20063;-76
2023/06/28 06:40:28;;;;;;;1.10;0.57;;;17.20;99.90;;;;;;5052986;28;20060;-76
2023/06/28 06:42:54;;;;;;;0.82;0.50;;;17.50;99.90;;;;;;5053997;28;20036;-76
2023/06/28 06:45:20;;;;;;;3.28;0.57;;;17.80;99.90;;;;;;5056495;28;20401;-76
2023/06/28 06:47:46;;;;;;;1.25;0.45;;;17.90;99.90;;;;;;5039630;28;20071;-76
2023/06/28 06:50:13;;;;;;;0.50;0.40;;;18.10;99.90;;;;;;5056608;28;20378;-76
2023/06/28 06:52:39;;;;;;;0.82;0.40;;;18.10;99.90;;;;;;5056627;28;20029;-76
2023/06/28 06:55:05;;;;;;;0.95;0.50;;;18.00;99.90;;;;;;5038646;28;20032;-77
2023/06/28 06:57:30;;;;;;;2.45;0.50;;;18.00;99.90;;;;;;5056274;28;20029;-76
2023/06/28 06:59:56;;;;;;;1.20;0.50;;;18.00;99.90;;;;;;5038490;28;20033;-77
2023/06/28 07:02:22;;;;;;;1.00;0.50;;;18.00;99.90;;;;;;5056418;28;20025;-78
2023/06/28 07:04:48;;;;;;;1.65;0.60;;;18.20;99.90;;;;;;5056409;28;20028;-78
2023/06/28 07:07:14;;;;;;;0.82;0.47;;;18.10;99.90;;;;;;5056384;28;20100;-80
2023/06/28 07:09:39;;;;;;;0.75;0.50;;;17.90;99.90;;;;;;5056678;28;20102;-80
2023/06/28 07:12:05;;;;;;;0.80;0.40;;;17.90;99.90;;;;;;5038942;28;20457;-80
2023/06/28 07:14:31;;;;;;;2.17;0.32;;;18.00;99.90;;;;;;5056519;28;20134;-79
2023/06/28 07:16:57;;;;;;;1.40;0.50;;;18.30;99.90;;;;;;5056608;28;20480;-79
2023/06/28 07:19:22;;;;;;;1.05;0.47;;;18.50;99.90;;;;;;5056614;28;20061;-80
2023/06/28 07:21:48;;;;;;;2.08;0.30;;;18.60;99.90;;;;;;5056081;28;20031;-80
2023/06/28 07:24:13;;;;;;;1.05;0.50;;;18.70;99.90;;;;;;5056299;28;20449;-79
2023/06/28 07:26:39;;;;;;;1.05;0.77;;;18.80;99.90;;;;;;5056006;28;20025;-80
2023/06/28 07:29:05;;;;;;;0.57;0.52;;;18.90;99.90;;;;;;5055983;28;20077;-80
2023/06/28 07:31:30;;;;;;;0.20;0.20;;;19.00;99.90;;;;;;5038023;28;20107;-79
2023/06/28 07:33:57;;;;;;;4.03;0.20;;;19.00;99.90;;;;;;5055909;28;20096;-79
2023/06/28 07:36:23;;;;;;;0.35;0.20;;;18.90;99.90;;;;;;5037972;28;20183;-81
2023/06/28 07:38:50;;;;;;;0.70;0.30;;;18.90;99.90;;;;;;5055478;28;20497;-79
2023/06/28 07:41:16;;;;;;;0.50;0.20;;;19.00;99.90;;;;;;5055738;28;20029;-79
2023/06/28 07:43:42;;;;;;;1.38;0.20;;;19.30;99.90;;;;;;5055678;28;20055;-81
2023/06/28 07:46:08;;;;;;;1.95;0.30;;;19.50;99.90;;;;;;5055648;28;20029;-79
2023/06/28 07:48:33;;;;;;;0.90;0.30;;;19.60;99.90;;;;;;5055795;28;20025;-79
2023/06/28 07:50:59;;;;;;;2.53;0.30;;;19.60;99.90;;;;;;5056175;28;20045;-79
2023/06/28 07:53:24;;;;;;;0.65;0.38;;;19.50;99.90;;;;;;5037463;28;20048;-72
2023/06/28 07:55:50;;;;;;;1.75;0.30;;;19.60;99.90;;;;;;5053667;28;20025;-72
2023/06/28 07:58:16;;;;;;;1.30;0.30;;;19.50;99.90;;;;;;5037177;28;20024;-73
2023/06/28 08:00:42;;;;;;;1.25;0.43;;;19.60;99.90;;;;;;5037569;28;20035;-72
2023/06/28 08:03:07;;;;;;;0.73;0.22;;;19.80;99.90;;;;;;5037264;28;20531;-72
2023/06/28 08:05:33;;;;;;;1.45;0.30;;;20.00;99.30;;;;;;5037882;28;20395;-73
2023/06/28 08:07:59;;;;;;;1.95;0.40;;;19.90;99.40;;;;;;5054780;28;20025;-73
2023/06/28 08:10:25;;;;;;;1.30;0.30;;;20.00;99.90;;;;;;5037211;28;20476;-72
2023/06/28 08:12:51;;;;;;;0.40;0.40;;;20.30;99.90;;;;;;5037221;28;20056;-73
2023/06/28 08:15:18;;;;;;;2.42;0.35;;;20.50;98.70;;;;;;5037176;28;20025;-72
2023/06/28 08:17:44;;;;;;;1.08;0.43;;;20.60;98.00;;;;;;5054987;28;20021;-73
2023/06/28 08:20:10;;;;;;;0.90;0.60;;;20.70;97.90;;;;;;5054858;28;20381;-73
2023/06/28 08:22:35;;;;;;;2.80;0.77;;;20.90;97.60;;;;;;5055089;28;20121;-73
2023/06/28 08:25:01;;;;;;;0.43;0.28;;;20.90;97.70;;;;;;5054995;28;20099;-73
2023/06/28 08:27:26;;;;;;;0.70;0.43;;;20.50;96.90;;;;;;5036957;28;20028;-73
2023/06/28 08:29:52;;;;;;;4.18;0.40;;;20.60;97.00;;;;;;5036795;28;20397;-73
2023/06/28 08:32:18;;;;;;;2.05;0.50;;;21.00;97.60;;;;;;5054308;28;20033;-73
2023/06/28 08:34:43;;;;;;;1.20;0.47;;;21.20;96.60;;;;;;5054921;28;20025;-73
2023/06/28 08:37:09;;;;;;;1.38;0.43;;;21.30;95.60;;;;;;5036694;28;20025;-73
2023/06/28 08:39:38;;;;;;;0.70;0.40;;;21.50;95.20;;;;;;5054147;28;20466;-73
2023/06/28 08:42:04;;;;;;;0.93;0.60;;;21.70;94.90;;;;;;5054410;28;20025;-72
2023/06/28 08:44:33;;;;;;;0.70;0.60;;;21.70;93.90;;;;;;5054413;28;20037;-73
2023/06/28 08:47:00;;;;;;;0.50;0.50;;;21.80;93.40;;;;;;5036500;28;20025;-73
2023/06/28 08:49:27;;;;;;;0.85;0.40;;;22.00;93.80;;;;;;5054067;28;20469;-71
2023/06/28 08:51:55;;;;;;;1.00;0.30;;;22.30;93.00;;;;;;5054388;28;20099;-73
2023/06/28 08:54:23;;;;;;;0.40;0.35;;;22.10;92.10;;;;;;5054543;28;20086;-73
2023/06/28 08:56:53;;;;;;;1.42;0.40;;;21.90;92.20;;;;;;5036312;28;20120;-71
2023/06/28 08:59:20;;;;;;;0.68;0.50;;;22.30;92.20;;;;;;5035895;28;20079;-73
2023/06/28 09:01:47;;;;;;;4.68;0.65;;;22.80;91.40;;;;;;5054086;28;20036;-73
2023/06/28 09:04:12;;;;;;;2.20;0.47;;;22.90;90.90;;;;;;5054133;28;20096;-73
2023/06/28 09:06:38;;;;;;;0.60;0.45;;;23.00;89.60;;;;;;5053718;28;20491;-70
2023/06/28 09:09:04;;;;;;;0.65;0.40;;;22.80;90.10;;;;;;5054193;28;20381;-73
2023/06/28 09:11:30;;;;;;;3.88;0.65;;;22.30;90.00;;;;;;5036164;28;20465;-73
2023/06/28 09:13:57;;;;;;;0.63;0.50;;;22.20;90.10;;;;;;5035812;28;20029;-73
2023/06/28 09:16:23;;;;;;;2.22;0.60;;;22.10;90.40;;;;;;5054220;28;20465;-73
2023/06/28 09:18:49;;;;;;;0.77;0.50;;;22.30;90.60;;;;;;5036222;28;20039;-73
2023/06/28 09:21:31;;;;;;;0.93;0.38;;;22.70;89.70;;;;;;5036023;28;20456;-73
2023/06/28 09:23:57;;;;;;;2.88;0.60;;;22.60;89.40;;;;;;5053904;28;20029;-73
2023/06/28 09:26:33;;;;;;;0.38;0.30;;;22.70;88.90;;;;;;5053781;28;20025;-71
2023/06/28 09:29:10;;;;;;;1.38;0.50;;;23.00;89.00;;;;;;5036219;28;20124;-71
2023/06/28 09:31:41;;;;;;;4.28;0.73;;;23.30;88.20;;;;;;5035692;28;20059;-73
2023/06/28 09:34:06;;;;;;;1.73;0.60;;;23.80;86.40;;;;;;5036115;28;20122;-74
2023/06/28 09:36:34;;;;;;;2.80;0.70;;;24.10;83.30;;;;;;5036089;28;20052;-72
2023/06/28 09:39:03;;;;;;;2.97;0.98;;;23.80;82.00;;;;;;5053505;28;20040;-72
2023/06/28 09:41:42;;;;;;;1.75;0.70;;;23.60;82.30;;;;;;5053606;28;20115;-72
2023/06/28 09:44:09;;;;;;;1.02;0.80;;;23.60;83.50;;;;;;5053472;28;20499;-71
2023/06/28 09:46:35;;;;;;;2.35;0.70;;;23.70;81.50;;;;;;5053482;28;20029;-72
2023/06/28 09:49:01;;;;;;;1.13;0.50;;;23.80;80.70;;;;;;5035588;28;20427;-73
2023/06/28 09:51:27;;;;;;;0.88;0.65;;;23.40;82.00;;;;;;5053598;28;20053;-73
2023/06/28 09:53:56;;;;;;;2.35;0.90;;;23.30;83.10;;;;;;5053463;28;20129;-72
2023/06/28 09:56:42;;;;;;;1.52;0.50;;;23.60;82.00;;;;;;5035693;28;20396;-74
2023/06/28 09:59:08;;;;;;;3.33;0.80;;;24.20;80.20;;;;;;5052583;28;20404;-74
2023/06/28 10:01:41;;;;;;;0.70;0.60;;;24.60;79.90;;;;;;5035165;28;20033;-74
2023/06/28 10:04:08;;;;;;;3.00;0.57;;;24.70;78.50;;;;;;5035790;28;20029;-74
2023/06/28 10:06:35;;;;;;;0.90;0.73;;;24.80;79.00;;;;;;5053669;28;20029;-74
2023/06/28 10:09:02;;;;;;;1.00;0.80;;;24.90;74.10;;;;;;5053255;28;20090;-74
2023/06/28 10:11:31;;;;;;;0.60;0.60;;;24.80;75.10;;;;;;5035372;28;20487;-74
2023/06/28 10:13:59;;;;;;;3.30;0.80;;;25.30;74.30;;;;;;5053192;28;20025;-74
2023/06/28 10:16:28;;;;;;;0.73;0.68;;;25.20;71.90;;;;;;5053232;28;20017;-71
2023/06/28 10:18:54;;;;;;;1.25;0.63;;;24.00;74.00;;;;;;5055400;28;20388;-73
2023/06/28 10:21:20;;;;;;;0.75;0.75;;;23.40;76.40;;;;;;5057152;28;20033;-73
2023/06/28 10:23:47;;;;;;;0.50;0.50;;;23.00;77.80;;;;;;5038982;28;20040;-73
2023/06/28 10:26:14;;;;;;;2.45;0.70;;;22.90;80.20;;;;;;5039226;28;20048;-73
2023/06/28 10:28:41;;;;;;;1.33;0.77;;;22.70;80.40;;;;;;5057073;28;20025;-73
2023/06/28 10:31:07;;;;;;;1.45;0.70;;;23.00;78.00;;;;;;5057002;28;20029;-73
2023/06/28 10:33:36;;;;;;;3.38;0.85;;;23.40;77.00;;;;;;5038819;28;20029;-74
2023/06/28 10:36:03;;;;;;;1.73;0.73;;;23.80;75.90;;;;;;5056801;28;20021;-72
2023/06/28 10:38:33;;;;;;;1.35;0.90;;;24.10;75.20;;;;;;5056401;28;20036;-74
2023/06/28 10:41:00;;;;;;;1.80;0.68;;;24.70;76.00;;;;;;5039062;28;20037;-74
2023/06/28 10:43:26;;;;;;;0.55;0.43;;;25.20;72.40;;;;;;5056715;28;20033;-74
2023/06/28 10:45:52;;;;;;;2.65;0.75;;;25.50;72.80;;;;;;5056774;28;20082;-74
2023/06/28 10:48:19;;;;;;;1.40;1.00;;;25.50;68.80;;;;;;5056592;28;20074;-74
2023/06/28 10:50:47;;;;;;;0.60;0.60;;;25.70;68.40;;;;;;5056190;28;20045;-74
2023/06/28 10:53:23;;;;;;;1.42;0.70;;;26.00;67.50;;;;;;5056623;28;20040;-74
2023/06/28 10:56:09;;;;;;;1.05;0.88;;;25.70;68.00;;;;;;5056572;28;20025;-74
2023/06/28 10:58:40;;;;;;;2.30;0.70;;;25.30;70.50;;;;;;5038783;28;20376;-73
2023/06/28 11:01:07;;;;;;;1.48;0.50;;;25.20;68.90;;;;;;5038541;28;20037;-73
2023/06/28 11:03:41;;;;;;;0.65;0.60;;;25.50;68.50;;;;;;5056349;28;20460;-73
2023/06/28 11:06:08;;;;;;;2.53;0.70;;;25.50;69.00;;;;;;5038244;28;20017;-74
2023/06/28 11:08:52;;;;;;;1.08;0.50;;;25.70;66.20;;;;;;5056019;28;20389;-73
2023/06/28 11:11:35;;;;;;;1.88;0.40;;;25.80;67.90;;;;;;5056388;28;20021;-74
2023/06/28 11:14:26;;;;;;;1.80;0.70;;;26.00;65.90;;;;;;5056330;28;20029;-74
2023/06/28 11:16:59;;;;;;;1.55;0.80;;;26.10;65.10;;;;;;5056436;28;20024;-74
2023/06/28 11:19:26;;;;;;;2.53;0.60;;;26.10;64.90;;;;;;5038518;28;20464;-74
2023/06/28 11:22:00;;;;;;;1.08;0.77;;;26.10;65.20;;;;;;5056149;28;20025;-74
2023/06/28 11:24:37;;;;;;;1.45;0.52;;;26.20;62.90;;;;;;5055778;28;20058;-73
2023/06/28 11:27:08;;;;;;;0.75;0.50;;;26.30;63.80;;;;;;5055962;28;20457;-74
2023/06/28 11:30:01;;;;;;;1.15;0.55;;;26.60;63.90;;;;;;5055479;28;20065;-74
2023/06/28 11:32:32;;;;;;;1.45;0.70;;;26.40;61.70;;;;;;5038587;28;20024;-73
2023/06/28 11:34:59;;;;;;;0.80;0.70;;;26.30;63.80;;;;;;5055877;28;20017;-74
2023/06/28 11:37:26;;;;;;;0.68;0.50;;;26.60;61.90;;;;;;5055804;28;20028;-74
2023/06/28 11:39:52;;;;;;;1.25;0.70;;;26.50;61.10;;;;;;5037827;28;20040;-74
2023/06/28 11:42:19;;;;;;;0.90;0.80;;;26.10;63.40;;;;;;5037735;28;20102;-74
2023/06/28 11:44:52;;;;;;;3.03;0.70;;;26.30;63.00;;;;;;5037758;28;20021;-74
2023/06/28 11:47:22;;;;;;;1.52;0.70;;;26.70;61.80;;;;;;5055369;28;20354;-73
2023/06/28 11:49:49;;;;;;;1.10;0.65;;;27.20;62.00;;;;;;5055522;28;20076;-72
2023/06/28 11:52:20;;;;;;;2.00;0.90;;;27.50;61.80;;;;;;5037743;28;20037;-71
2023/06/28 11:54:46;;;;;;;3.22;0.80;;;26.90;60.60;;;;;;5037495;28;20033;-72
2023/06/28 11:57:11;;;;;;;1.27;0.82;;;27.00;61.60;;;;;;5055680;28;20033;-72
2023/06/28 11:59:44;;;;;;;2.60;0.75;;;27.30;59.70;;;;;;5055607;28;20036;-70
2023/06/28 12:02:10;;;;;;;1.73;0.70;;;27.40;60.30;;;;;;5055634;28;20053;-70
2023/06/28 12:04:37;;;;;;;0.73;0.63;;;27.50;58.30;;;;;;5037573;28;20061;-70
2023/06/28 12:07:04;;;;;;;3.30;1.25;;;27.80;58.40;;;;;;5055203;28;20045;-72
2023/06/28 12:09:32;;;;;;;6.70;0.88;;;28.30;58.60;;;;;;5055365;28;20032;-73
2023/06/28 12:12:04;;;;;;;4.82;0.80;;;28.00;58.40;;;;;;5055148;28;20025;-72
2023/06/28 12:14:42;;;;;;;2.38;0.70;;;27.50;59.20;;;;;;5054760;28;20558;-74
2023/06/28 12:17:08;;;;;;;1.83;0.75;;;26.00;58.60;;;;;;5055191;28;20460;-73
2023/06/28 12:19:35;;;;;;;5.70;0.75;;;24.60;62.20;;;;;;5054881;28;20126;-72
2023/06/28 12:22:05;;;;;;;2.78;0.57;;;24.10;65.00;;;;;;5054624;28;20040;-74
2023/06/28 12:24:35;;;;;;;3.92;1.00;;;23.50;67.50;;;;;;5055121;28;20028;-72
2023/06/28 12:27:06;;;;;;;8.30;1.00;;;22.90;74.20;;;;;;5037203;28;20031;-71
2023/06/28 12:29:35;;;;;;;4.85;1.48;;;22.10;80.20;;;;;;5037264;28;20033;-70
2023/06/28 12:32:05;;;;;;;2.25;1.08;;;21.50;86.50;;;;;;5037070;28;20358;-70
2023/06/28 12:34:34;;;;;;;2.33;0.88;;;21.10;91.80;;;;;;5036742;28;20447;-69
2023/06/28 12:37:07;;;;;;;2.45;1.35;;;20.80;92.60;;;;;;5054799;28;20055;-70
2023/06/28 12:39:35;;;;;;;2.38;1.13;;;20.50;99.90;;;;;;5054352;28;20033;-69
2023/06/28 12:42:20;;;;;;;3.40;1.08;;;20.50;99.90;;;;;;5053942;28;20112;-69
2023/06/28 12:45:01;;;;;;;1.42;1.00;;;20.40;99.90;;;;;;5054576;28;20055;-69